sensor_id;sensor_type;location;lat;lon;timestamp;pressure;altitude;pressure_sealevel;temperature;humidity
84524;BME280;74765;44.538;18.668;2024-03-02T00:00:26;98107.63;;;16.98;41.12
84524;BME280;74765;44.538;18.668;2024-03-02T00:02:52;98108.66;;;16.92;41.33
84524;BME280;74765;44.538;18.668;2024-03-02T00:05:19;98109.16;;;16.52;42.24
84524;BME280;74765;44.538;18.668;2024-03-02T00:07:56;98116.47;;;16.57;42.44
84524;BME280;74765;44.538;18.668;2024-03-02T00:10:25;98113.91;;;16.67;41.93
84524;BME280;74765;44.538;18.668;2024-03-02T00:12:55;98115.91;;;16.55;41.85
84524;BME280;74765;44.538;18.668;2024-03-02T00:17:56;98115.03;;;16.76;41.55
84524;BME280;74765;44.538;18.668;2024-03-02T00:20:22;98114.81;;;16.51;41.81
84524;BME280;74765;44.538;18.668;2024-03-02T00:22:51;98118.84;;;16.80;41.29
84524;BME280;74765;44.538;18.668;2024-03-02T00:25:17;98120.84;;;16.58;41.66
84524;BME280;74765;44.538;18.668;2024-03-02T00:27:47;98116.16;;;16.80;41.36
84524;BME280;74765;44.538;18.668;2024-03-02T00:33:06;98126.22;;;16.31;42.20
84524;BME280;74765;44.538;18.668;2024-03-02T00:35:32;98126.50;;;16.30;42.24
84524;BME280;74765;44.538;18.668;2024-03-02T00:38:06;98124.72;;;16.13;42.69
84524;BME280;74765;44.538;18.668;2024-03-02T00:40:32;98120.03;;;16.04;42.90
84524;BME280;74765;44.538;18.668;2024-03-02T00:42:58;98139.16;;;15.75;43.29
84524;BME280;74765;44.538;18.668;2024-03-02T00:45:25;98127.03;;;15.78;43.51
84524;BME280;74765;44.538;18.668;2024-03-02T00:47:51;98130.91;;;15.87;43.20
84524;BME280;74765;44.538;18.668;2024-03-02T00:50:18;98130.13;;;15.65;43.49
84524;BME280;74765;44.538;18.668;2024-03-02T00:52:44;98136.72;;;15.14;45.05
84524;BME280;74765;44.538;18.668;2024-03-02T00:55:10;98136.66;;;15.09;44.87
84524;BME280;74765;44.538;18.668;2024-03-02T00:57:36;98132.06;;;15.91;43.03
84524;BME280;74765;44.538;18.668;2024-03-02T01:00:02;98134.09;;;16.06;42.46
84524;BME280;74765;44.538;18.668;2024-03-02T01:02:30;98131.41;;;16.06;42.70
84524;BME280;74765;44.538;18.668;2024-03-02T01:04:55;98132.94;;;16.02;42.91
84524;BME280;74765;44.538;18.668;2024-03-02T01:07:21;98125.91;;;15.74;43.57
84524;BME280;74765;44.538;18.668;2024-03-02T01:09:47;98129.53;;;15.19;44.75
84524;BME280;74765;44.538;18.668;2024-03-02T01:12:12;98126.03;;;15.84;43.55
84524;BME280;74765;44.538;18.668;2024-03-02T01:14:38;98132.00;;;15.64;43.73
84524;BME280;74765;44.538;18.668;2024-03-02T01:17:04;98131.88;;;15.76;43.40
84524;BME280;74765;44.538;18.668;2024-03-02T01:19:30;98133.53;;;15.77;43.37
84524;BME280;74765;44.538;18.668;2024-03-02T01:21:56;98136.28;;;15.82;43.49
84524;BME280;74765;44.538;18.668;2024-03-02T01:24:22;98129.94;;;16.25;42.34
84524;BME280;74765;44.538;18.668;2024-03-02T01:26:48;98128.84;;;16.21;42.22
84524;BME280;74765;44.538;18.668;2024-03-02T01:29:13;98132.69;;;16.30;41.92
84524;BME280;74765;44.538;18.668;2024-03-02T01:31:39;98129.41;;;15.96;43.22
84524;BME280;74765;44.538;18.668;2024-03-02T01:34:08;98121.75;;;16.42;42.07
84524;BME280;74765;44.538;18.668;2024-03-02T01:36:34;98116.91;;;16.44;41.52
84524;BME280;74765;44.538;18.668;2024-03-02T01:38:59;98124.00;;;16.55;41.58
84524;BME280;74765;44.538;18.668;2024-03-02T01:41:26;98120.34;;;16.34;41.79
84524;BME280;74765;44.538;18.668;2024-03-02T01:43:52;98115.34;;;16.48;41.70
84524;BME280;74765;44.538;18.668;2024-03-02T01:46:18;98123.19;;;16.23;42.05
84524;BME280;74765;44.538;18.668;2024-03-02T01:48:44;98112.31;;;16.39;41.83
84524;BME280;74765;44.538;18.668;2024-03-02T01:51:09;98109.44;;;16.56;41.52
84524;BME280;74765;44.538;18.668;2024-03-02T01:53:36;98109.75;;;16.28;42.14
84524;BME280;74765;44.538;18.668;2024-03-02T01:56:02;98106.19;;;16.22;41.98
84524;BME280;74765;44.538;18.668;2024-03-02T01:58:28;98110.50;;;15.91;42.96
84524;BME280;74765;44.538;18.668;2024-03-02T02:00:54;98109.72;;;15.30;44.28
84524;BME280;74765;44.538;18.668;2024-03-02T02:03:19;98097.84;;;15.97;43.03
84524;BME280;74765;44.538;18.668;2024-03-02T02:05:45;98107.09;;;15.79;43.43
84524;BME280;74765;44.538;18.668;2024-03-02T02:08:13;98105.16;;;15.96;42.69
84524;BME280;74765;44.538;18.668;2024-03-02T02:10:39;98107.81;;;16.23;42.11
84524;BME280;74765;44.538;18.668;2024-03-02T02:13:05;98107.63;;;16.30;42.03
84524;BME280;74765;44.538;18.668;2024-03-02T02:15:30;98103.16;;;16.45;41.88
84524;BME280;74765;44.538;18.668;2024-03-02T02:17:57;98111.50;;;15.63;43.63
84524;BME280;74765;44.538;18.668;2024-03-02T02:20:24;98105.84;;;15.87;42.95
84524;BME280;74765;44.538;18.668;2024-03-02T02:22:57;98103.69;;;16.10;42.36
84524;BME280;74765;44.538;18.668;2024-03-02T02:25:23;98108.50;;;15.82;43.30
84524;BME280;74765;44.538;18.668;2024-03-02T02:27:49;98104.00;;;15.44;43.99
84524;BME280;74765;44.538;18.668;2024-03-02T02:30:19;98112.28;;;14.99;45.47
84524;BME280;74765;44.538;18.668;2024-03-02T02:32:45;98111.19;;;15.38;44.46
84524;BME280;74765;44.538;18.668;2024-03-02T02:35:10;98104.47;;;15.84;43.23
84524;BME280;74765;44.538;18.668;2024-03-02T02:37:36;98106.16;;;15.90;43.29
84524;BME280;74765;44.538;18.668;2024-03-02T02:40:02;98108.44;;;15.55;43.83
84524;BME280;74765;44.538;18.668;2024-03-02T02:42:30;98112.00;;;15.39;44.21
84524;BME280;74765;44.538;18.668;2024-03-02T02:44:56;98108.28;;;15.45;44.31
84524;BME280;74765;44.538;18.668;2024-03-02T02:47:21;98110.91;;;15.40;44.37
84524;BME280;74765;44.538;18.668;2024-03-02T02:49:47;98113.03;;;15.54;43.86
84524;BME280;74765;44.538;18.668;2024-03-02T02:52:13;98110.25;;;15.71;43.28
84524;BME280;74765;44.538;18.668;2024-03-02T02:54:38;98113.06;;;15.81;42.92
84524;BME280;74765;44.538;18.668;2024-03-02T02:57:04;98120.84;;;15.77;43.01
84524;BME280;74765;44.538;18.668;2024-03-02T02:59:30;98124.25;;;15.68;43.35
84524;BME280;74765;44.538;18.668;2024-03-02T03:01:56;98120.97;;;15.44;43.21
84524;BME280;74765;44.538;18.668;2024-03-02T03:04:21;98120.81;;;15.72;43.25
84524;BME280;74765;44.538;18.668;2024-03-02T03:06:47;98119.75;;;16.00;42.54
84524;BME280;74765;44.538;18.668;2024-03-02T03:09:13;98117.50;;;15.92;42.30
84524;BME280;74765;44.538;18.668;2024-03-02T03:11:38;98114.72;;;15.87;42.96
84524;BME280;74765;44.538;18.668;2024-03-02T03:14:04;98119.88;;;15.62;43.21
84524;BME280;74765;44.538;18.668;2024-03-02T03:16:30;98119.28;;;15.60;43.08
84524;BME280;74765;44.538;18.668;2024-03-02T03:18:56;98116.13;;;15.90;42.63
84524;BME280;74765;44.538;18.668;2024-03-02T03:21:22;98116.13;;;16.16;41.81
84524;BME280;74765;44.538;18.668;2024-03-02T03:23:48;98122.09;;;16.18;41.81
84524;BME280;74765;44.538;18.668;2024-03-02T03:26:14;98123.44;;;15.94;42.08
84524;BME280;74765;44.538;18.668;2024-03-02T03:28:40;98116.84;;;15.80;42.44
84524;BME280;74765;44.538;18.668;2024-03-02T03:31:06;98126.91;;;15.90;42.31
84524;BME280;74765;44.538;18.668;2024-03-02T03:33:32;98127.31;;;15.77;42.72
84524;BME280;74765;44.538;18.668;2024-03-02T03:35:58;98133.47;;;15.72;42.77
84524;BME280;74765;44.538;18.668;2024-03-02T03:38:23;98126.41;;;15.27;43.68
84524;BME280;74765;44.538;18.668;2024-03-02T03:40:49;98131.69;;;14.84;44.91
84524;BME280;74765;44.538;18.668;2024-03-02T03:43:15;98130.66;;;15.23;43.96
84524;BME280;74765;44.538;18.668;2024-03-02T03:45:41;98119.72;;;15.30;43.66
84524;BME280;74765;44.538;18.668;2024-03-02T03:48:07;98124.78;;;15.48;43.49
84524;BME280;74765;44.538;18.668;2024-03-02T03:50:32;98129.00;;;15.39;43.62
84524;BME280;74765;44.538;18.668;2024-03-02T03:52:58;98124.75;;;15.65;43.14
84524;BME280;74765;44.538;18.668;2024-03-02T03:55:24;98129.94;;;15.11;44.01
84524;BME280;74765;44.538;18.668;2024-03-02T03:57:50;98130.22;;;15.31;43.48
84524;BME280;74765;44.538;18.668;2024-03-02T04:00:15;98137.22;;;15.11;44.18
84524;BME280;74765;44.538;18.668;2024-03-02T04:02:41;98128.84;;;15.29;43.67
84524;BME280;74765;44.538;18.668;2024-03-02T04:05:07;98143.78;;;14.81;44.61
84524;BME280;74765;44.538;18.668;2024-03-02T04:07:37;98148.41;;;15.03;44.47
84524;BME280;74765;44.538;18.668;2024-03-02T04:10:07;98146.63;;;13.56;47.79
84524;BME280;74765;44.538;18.668;2024-03-02T04:12:34;98145.47;;;13.52;48.18
84524;BME280;74765;44.538;18.668;2024-03-02T04:15:01;98145.34;;;14.77;45.16
84524;BME280;74765;44.538;18.668;2024-03-02T04:17:27;98144.25;;;14.95;44.56
84524;BME280;74765;44.538;18.668;2024-03-02T04:19:53;98149.22;;;15.03;44.40
84524;BME280;74765;44.538;18.668;2024-03-02T04:22:20;98151.59;;;13.76;47.44
84524;BME280;74765;44.538;18.668;2024-03-02T04:24:45;98156.97;;;15.00;45.11
84524;BME280;74765;44.538;18.668;2024-03-02T04:27:11;98158.69;;;14.89;44.85
84524;BME280;74765;44.538;18.668;2024-03-02T04:29:37;98158.41;;;15.24;44.28
84524;BME280;74765;44.538;18.668;2024-03-02T04:32:03;98162.38;;;15.00;44.47
84524;BME280;74765;44.538;18.668;2024-03-02T04:34:28;98154.72;;;14.75;45.08
84524;BME280;74765;44.538;18.668;2024-03-02T04:36:54;98160.84;;;14.54;45.44
84524;BME280;74765;44.538;18.668;2024-03-02T04:39:20;98163.63;;;14.59;45.37
84524;BME280;74765;44.538;18.668;2024-03-02T04:41:45;98167.53;;;14.68;45.39
84524;BME280;74765;44.538;18.668;2024-03-02T04:44:11;98176.38;;;15.02;44.64
84524;BME280;74765;44.538;18.668;2024-03-02T04:46:37;98182.53;;;14.80;44.70
84524;BME280;74765;44.538;18.668;2024-03-02T04:49:02;98184.94;;;15.15;43.98
84524;BME280;74765;44.538;18.668;2024-03-02T04:51:28;98187.16;;;14.68;45.73
84524;BME280;74765;44.538;18.668;2024-03-02T04:53:54;98191.38;;;15.14;44.08
84524;BME280;74765;44.538;18.668;2024-03-02T04:56:20;98194.53;;;14.73;45.34
84524;BME280;74765;44.538;18.668;2024-03-02T04:58:51;98195.16;;;14.80;45.11
84524;BME280;74765;44.538;18.668;2024-03-02T05:01:17;98193.84;;;14.99;44.48
84524;BME280;74765;44.538;18.668;2024-03-02T05:03:43;98199.72;;;14.63;45.71
84524;BME280;74765;44.538;18.668;2024-03-02T05:06:09;98202.78;;;14.55;45.50
84524;BME280;74765;44.538;18.668;2024-03-02T05:08:35;98206.09;;;14.90;45.00
84524;BME280;74765;44.538;18.668;2024-03-02T05:11:00;98207.31;;;14.82;45.22
84524;BME280;74765;44.538;18.668;2024-03-02T05:13:46;98215.22;;;14.89;45.09
84524;BME280;74765;44.538;18.668;2024-03-02T05:16:12;98207.53;;;15.14;44.54
84524;BME280;74765;44.538;18.668;2024-03-02T05:18:38;98209.41;;;14.97;44.66
84524;BME280;74765;44.538;18.668;2024-03-02T05:21:04;98213.34;;;14.89;45.25
84524;BME280;74765;44.538;18.668;2024-03-02T05:23:29;98216.63;;;14.92;45.02
84524;BME280;74765;44.538;18.668;2024-03-02T05:25:56;98210.16;;;14.93;45.00
84524;BME280;74765;44.538;18.668;2024-03-02T05:28:22;98219.97;;;14.82;45.38
84524;BME280;74765;44.538;18.668;2024-03-02T05:30:47;98223.78;;;14.86;45.17
84524;BME280;74765;44.538;18.668;2024-03-02T05:33:13;98216.34;;;14.93;45.17
84524;BME280;74765;44.538;18.668;2024-03-02T05:35:39;98214.22;;;15.12;44.44
84524;BME280;74765;44.538;18.668;2024-03-02T05:38:05;98225.56;;;14.35;46.06
84524;BME280;74765;44.538;18.668;2024-03-02T05:40:30;98227.59;;;14.57;45.95
84524;BME280;74765;44.538;18.668;2024-03-02T05:42:56;98228.72;;;14.44;46.44
84524;BME280;74765;44.538;18.668;2024-03-02T05:45:22;98229.47;;;13.88;48.18
84524;BME280;74765;44.538;18.668;2024-03-02T05:47:47;98231.03;;;13.72;48.15
84524;BME280;74765;44.538;18.668;2024-03-02T05:50:13;98235.53;;;14.97;45.12
84524;BME280;74765;44.538;18.668;2024-03-02T05:52:39;98240.34;;;14.21;46.71
84524;BME280;74765;44.538;18.668;2024-03-02T05:55:05;98241.50;;;14.82;45.41
84524;BME280;74765;44.538;18.668;2024-03-02T05:57:30;98243.59;;;14.63;45.41
84524;BME280;74765;44.538;18.668;2024-03-02T06:00:19;98237.38;;;15.63;43.54
84524;BME280;74765;44.538;18.668;2024-03-02T06:02:45;98245.84;;;15.55;43.57
84524;BME280;74765;44.538;18.668;2024-03-02T06:05:11;98246.13;;;15.20;44.17
84524;BME280;74765;44.538;18.668;2024-03-02T06:07:37;98253.84;;;15.50;44.08
84524;BME280;74765;44.538;18.668;2024-03-02T06:10:03;98248.22;;;15.68;43.64
84524;BME280;74765;44.538;18.668;2024-03-02T06:12:31;98259.25;;;15.88;42.67
84524;BME280;74765;44.538;18.668;2024-03-02T06:14:58;98252.34;;;14.30;45.63
84524;BME280;74765;44.538;18.668;2024-03-02T06:17:23;98250.94;;;14.68;45.63
84524;BME280;74765;44.538;18.668;2024-03-02T06:19:49;98255.34;;;15.07;44.62
84524;BME280;74765;44.538;18.668;2024-03-02T06:22:15;98255.34;;;15.24;43.96
84524;BME280;74765;44.538;18.668;2024-03-02T06:24:40;98254.56;;;14.33;45.87
84524;BME280;74765;44.538;18.668;2024-03-02T06:27:06;98266.50;;;15.88;42.97
84524;BME280;74765;44.538;18.668;2024-03-02T06:29:34;98261.47;;;16.40;41.56
84524;BME280;74765;44.538;18.668;2024-03-02T06:32:00;98263.03;;;17.16;39.54
84524;BME280;74765;44.538;18.668;2024-03-02T06:34:26;98268.69;;;15.69;42.83
84524;BME280;74765;44.538;18.668;2024-03-02T06:36:52;98266.09;;;16.17;42.04
84524;BME280;74765;44.538;18.668;2024-03-02T06:39:17;98273.94;;;15.59;43.44
84524;BME280;74765;44.538;18.668;2024-03-02T06:41:43;98266.94;;;15.58;42.66
84524;BME280;74765;44.538;18.668;2024-03-02T06:44:09;98269.72;;;15.29;43.96
84524;BME280;74765;44.538;18.668;2024-03-02T06:46:34;98274.41;;;17.18;40.44
84524;BME280;74765;44.538;18.668;2024-03-02T06:49:00;98269.25;;;17.17;39.63
84524;BME280;74765;44.538;18.668;2024-03-02T06:51:28;98267.63;;;17.53;39.68
84524;BME280;74765;44.538;18.668;2024-03-02T06:53:53;98272.19;;;17.89;38.79
84524;BME280;74765;44.538;18.668;2024-03-02T06:56:19;98280.09;;;18.01;38.13
84524;BME280;74765;44.538;18.668;2024-03-02T06:58:45;98276.44;;;17.75;38.63
84524;BME280;74765;44.538;18.668;2024-03-02T07:01:10;98276.63;;;18.05;38.01
84524;BME280;74765;44.538;18.668;2024-03-02T07:03:36;98286.69;;;18.30;37.57
84524;BME280;74765;44.538;18.668;2024-03-02T07:06:02;98283.03;;;17.52;38.75
84524;BME280;74765;44.538;18.668;2024-03-02T07:08:28;98284.13;;;18.55;37.32
84524;BME280;74765;44.538;18.668;2024-03-02T07:10:54;98290.91;;;18.68;36.03
84524;BME280;74765;44.538;18.668;2024-03-02T07:13:19;98277.94;;;18.80;36.29
84524;BME280;74765;44.538;18.668;2024-03-02T07:15:45;98285.81;;;18.92;36.12
84524;BME280;74765;44.538;18.668;2024-03-02T07:18:30;98290.69;;;19.40;36.73
84524;BME280;74765;44.538;18.668;2024-03-02T07:21:09;98279.72;;;20.75;33.29
84524;BME280;74765;44.538;18.668;2024-03-02T07:23:35;98280.97;;;21.61;31.91
84524;BME280;74765;44.538;18.668;2024-03-02T07:26:00;98276.53;;;21.70;31.48
84524;BME280;74765;44.538;18.668;2024-03-02T07:28:27;98288.38;;;21.21;32.04
84524;BME280;74765;44.538;18.668;2024-03-02T07:31:03;98276.31;;;21.90;30.61
84524;BME280;74765;44.538;18.668;2024-03-02T07:33:30;98275.53;;;22.56;30.29
84524;BME280;74765;44.538;18.668;2024-03-02T07:35:57;98275.69;;;22.22;30.66
84524;BME280;74765;44.538;18.668;2024-03-02T07:38:23;98272.63;;;22.71;30.24
84524;BME280;74765;44.538;18.668;2024-03-02T07:40:49;98280.22;;;21.21;31.94
84524;BME280;74765;44.538;18.668;2024-03-02T07:43:21;98281.38;;;20.71;33.99
84524;BME280;74765;44.538;18.668;2024-03-02T07:45:48;98288.09;;;21.23;33.11
84524;BME280;74765;44.538;18.668;2024-03-02T07:48:14;98288.13;;;22.52;30.71
84524;BME280;74765;44.538;18.668;2024-03-02T07:50:40;98285.13;;;22.91;29.84
84524;BME280;74765;44.538;18.668;2024-03-02T07:53:06;98292.88;;;22.41;30.42
84524;BME280;74765;44.538;18.668;2024-03-02T07:55:33;98289.91;;;23.18;28.96
84524;BME280;74765;44.538;18.668;2024-03-02T07:58:00;98297.63;;;23.29;29.32
84524;BME280;74765;44.538;18.668;2024-03-02T08:00:26;98299.69;;;23.37;29.38
84524;BME280;74765;44.538;18.668;2024-03-02T08:02:53;98296.78;;;23.66;29.03
84524;BME280;74765;44.538;18.668;2024-03-02T08:05:19;98297.19;;;24.01;28.50
84524;BME280;74765;44.538;18.668;2024-03-02T08:07:45;98300.69;;;24.47;27.79
84524;BME280;74765;44.538;18.668;2024-03-02T08:10:12;98299.75;;;24.65;27.47
84524;BME280;74765;44.538;18.668;2024-03-02T08:12:38;98303.47;;;24.69;27.64
84524;BME280;74765;44.538;18.668;2024-03-02T08:15:04;98305.25;;;25.23;27.64
84524;BME280;74765;44.538;18.668;2024-03-02T08:17:30;98305.75;;;25.25;26.68
84524;BME280;74765;44.538;18.668;2024-03-02T08:19:56;98301.78;;;25.54;26.45
84524;BME280;74765;44.538;18.668;2024-03-02T08:22:23;98296.63;;;25.75;26.34
84524;BME280;74765;44.538;18.668;2024-03-02T08:24:51;98297.16;;;25.85;25.83
84524;BME280;74765;44.538;18.668;2024-03-02T08:27:17;98301.78;;;25.54;26.17
84524;BME280;74765;44.538;18.668;2024-03-02T08:29:42;98302.84;;;25.44;26.46
84524;BME280;74765;44.538;18.668;2024-03-02T08:32:08;98296.38;;;26.24;25.84
84524;BME280;74765;44.538;18.668;2024-03-02T08:34:34;98295.94;;;26.00;25.43
84524;BME280;74765;44.538;18.668;2024-03-02T08:37:01;98297.56;;;26.40;24.98
84524;BME280;74765;44.538;18.668;2024-03-02T08:39:28;98296.41;;;26.98;24.49
84524;BME280;74765;44.538;18.668;2024-03-02T08:41:54;98293.16;;;27.05;23.97
84524;BME280;74765;44.538;18.668;2024-03-02T08:44:20;98289.81;;;26.42;25.29
84524;BME280;74765;44.538;18.668;2024-03-02T08:46:46;98295.94;;;26.39;24.96
84524;BME280;74765;44.538;18.668;2024-03-02T08:49:12;98292.94;;;25.35;26.08
84524;BME280;74765;44.538;18.668;2024-03-02T08:51:38;98290.78;;;25.98;25.00
84524;BME280;74765;44.538;18.668;2024-03-02T08:54:04;98286.97;;;26.56;24.95
84524;BME280;74765;44.538;18.668;2024-03-02T08:56:30;98292.38;;;27.13;24.24
84524;BME280;74765;44.538;18.668;2024-03-02T08:58:56;98291.56;;;27.12;24.23
84524;BME280;74765;44.538;18.668;2024-03-02T09:01:22;98295.53;;;26.72;24.87
84524;BME280;74765;44.538;18.668;2024-03-02T09:03:48;98293.59;;;26.72;24.64
84524;BME280;74765;44.538;18.668;2024-03-02T09:06:17;98288.94;;;26.73;25.15
84524;BME280;74765;44.538;18.668;2024-03-02T09:08:43;98298.56;;;26.62;24.46
84524;BME280;74765;44.538;18.668;2024-03-02T09:11:10;98295.78;;;26.05;23.57
84524;BME280;74765;44.538;18.668;2024-03-02T09:13:38;98283.59;;;26.68;23.02
84524;BME280;74765;44.538;18.668;2024-03-02T09:16:04;98281.88;;;27.32;21.81
84524;BME280;74765;44.538;18.668;2024-03-02T09:18:31;98282.66;;;27.41;21.91
84524;BME280;74765;44.538;18.668;2024-03-02T09:20:56;98284.69;;;27.87;21.56
84524;BME280;74765;44.538;18.668;2024-03-02T09:23:22;98281.97;;;28.25;20.73
84524;BME280;74765;44.538;18.668;2024-03-02T09:25:48;98286.41;;;28.38;21.20
84524;BME280;74765;44.538;18.668;2024-03-02T09:28:16;98285.09;;;27.25;22.73
84524;BME280;74765;44.538;18.668;2024-03-02T09:30:42;98280.69;;;28.22;21.68
84524;BME280;74765;44.538;18.668;2024-03-02T09:33:08;98282.59;;;29.43;20.34
84524;BME280;74765;44.538;18.668;2024-03-02T09:35:34;98280.44;;;29.36;19.44
84524;BME280;74765;44.538;18.668;2024-03-02T09:37:59;98278.63;;;28.69;20.99
84524;BME280;74765;44.538;18.668;2024-03-02T09:40:25;98285.91;;;28.65;20.70
84524;BME280;74765;44.538;18.668;2024-03-02T09:42:51;98275.91;;;28.61;21.36
84524;BME280;74765;44.538;18.668;2024-03-02T09:45:23;98275.72;;;28.45;20.62
84524;BME280;74765;44.538;18.668;2024-03-02T09:47:49;98277.19;;;28.72;20.52
84524;BME280;74765;44.538;18.668;2024-03-02T09:50:15;98277.53;;;28.62;20.03
84524;BME280;74765;44.538;18.668;2024-03-02T09:52:50;98265.88;;;27.51;21.52
84524;BME280;74765;44.538;18.668;2024-03-02T09:55:16;98270.09;;;27.95;19.58
84524;BME280;74765;44.538;18.668;2024-03-02T09:57:43;98275.72;;;27.61;20.72
84524;BME280;74765;44.538;18.668;2024-03-02T10:00:09;98278.16;;;28.00;20.75
84524;BME280;74765;44.538;18.668;2024-03-02T10:02:43;98272.03;;;28.03;20.59
84524;BME280;74765;44.538;18.668;2024-03-02T10:05:10;98275.47;;;28.59;19.29
84524;BME280;74765;44.538;18.668;2024-03-02T10:07:36;98276.44;;;29.25;18.81
84524;BME280;74765;44.538;18.668;2024-03-02T10:10:14;98273.69;;;29.04;19.57
84524;BME280;74765;44.538;18.668;2024-03-02T10:12:40;98271.78;;;28.55;18.63
84524;BME280;74765;44.538;18.668;2024-03-02T10:15:07;98280.53;;;28.48;18.14
84524;BME280;74765;44.538;18.668;2024-03-02T10:17:34;98275.66;;;28.54;18.57
84524;BME280;74765;44.538;18.668;2024-03-02T10:20:23;98269.63;;;29.23;17.72
84524;BME280;74765;44.538;18.668;2024-03-02T10:22:50;98270.53;;;28.44;18.47
84524;BME280;74765;44.538;18.668;2024-03-02T10:25:31;98270.25;;;27.99;18.74
84524;BME280;74765;44.538;18.668;2024-03-02T10:27:58;98261.63;;;28.47;19.70
84524;BME280;74765;44.538;18.668;2024-03-02T10:30:26;98266.03;;;28.01;19.38
84524;BME280;74765;44.538;18.668;2024-03-02T10:32:53;98264.72;;;27.61;19.55
84524;BME280;74765;44.538;18.668;2024-03-02T10:35:20;98264.53;;;28.21;19.47
84524;BME280;74765;44.538;18.668;2024-03-02T10:37:47;98248.16;;;27.87;19.94
84524;BME280;74765;44.538;18.668;2024-03-02T10:40:13;98254.09;;;26.82;19.77
84524;BME280;74765;44.538;18.668;2024-03-02T10:42:41;98244.28;;;26.89;19.77
84524;BME280;74765;44.538;18.668;2024-03-02T10:45:09;98250.19;;;27.43;19.43
84524;BME280;74765;44.538;18.668;2024-03-02T10:47:37;98256.25;;;27.83;19.35
84524;BME280;74765;44.538;18.668;2024-03-02T10:50:04;98247.63;;;27.55;20.20
84524;BME280;74765;44.538;18.668;2024-03-02T10:52:36;98246.16;;;27.96;19.38
84524;BME280;74765;44.538;18.668;2024-03-02T10:55:03;98243.78;;;26.96;19.26
84524;BME280;74765;44.538;18.668;2024-03-02T10:57:41;98236.63;;;26.43;20.75
84524;BME280;74765;44.538;18.668;2024-03-02T11:00:12;98242.63;;;26.63;21.11
84524;BME280;74765;44.538;18.668;2024-03-02T11:02:56;98235.38;;;27.01;20.85
84524;BME280;74765;44.538;18.668;2024-03-02T11:05:27;98228.28;;;26.83;20.40
84524;BME280;74765;44.538;18.668;2024-03-02T11:08:00;98229.50;;;26.42;20.21
84524;BME280;74765;44.538;18.668;2024-03-02T11:10:38;98227.28;;;26.44;20.23
84524;BME280;74765;44.538;18.668;2024-03-02T11:13:12;98223.25;;;26.42;21.17
84524;BME280;74765;44.538;18.668;2024-03-02T11:15:40;98224.38;;;26.49;21.41
84524;BME280;74765;44.538;18.668;2024-03-02T11:18:06;98219.34;;;26.34;20.93
84524;BME280;74765;44.538;18.668;2024-03-02T11:20:37;98213.31;;;26.89;21.08
84524;BME280;74765;44.538;18.668;2024-03-02T11:23:08;98215.22;;;27.06;21.40
84524;BME280;74765;44.538;18.668;2024-03-02T11:25:34;98211.19;;;26.86;19.82
84524;BME280;74765;44.538;18.668;2024-03-02T11:28:07;98212.94;;;25.99;20.64
84524;BME280;74765;44.538;18.668;2024-03-02T11:33:04;98212.59;;;25.84;21.30
84524;BME280;74765;44.538;18.668;2024-03-02T11:35:36;98212.47;;;26.06;21.18
84524;BME280;74765;44.538;18.668;2024-03-02T11:38:03;98203.72;;;26.26;20.99
84524;BME280;74765;44.538;18.668;2024-03-02T11:40:29;98209.34;;;26.21;21.53
84524;BME280;74765;44.538;18.668;2024-03-02T11:42:56;98207.00;;;25.66;21.70
84524;BME280;74765;44.538;18.668;2024-03-02T11:45:25;98199.69;;;26.32;21.34
84524;BME280;74765;44.538;18.668;2024-03-02T11:47:54;98200.34;;;26.46;21.00
84524;BME280;74765;44.538;18.668;2024-03-02T11:50:48;98200.69;;;25.97;21.48
84524;BME280;74765;44.538;18.668;2024-03-02T11:53:15;98191.00;;;25.91;21.42
84524;BME280;74765;44.538;18.668;2024-03-02T11:55:41;98193.81;;;26.08;21.00
84524;BME280;74765;44.538;18.668;2024-03-02T11:58:12;98195.63;;;26.21;21.54
84524;BME280;74765;44.538;18.668;2024-03-02T12:00:38;98193.16;;;26.20;22.24
84524;BME280;74765;44.538;18.668;2024-03-02T12:03:09;98199.34;;;25.77;20.99
84524;BME280;74765;44.538;18.668;2024-03-02T12:05:35;98190.53;;;25.89;21.09
84524;BME280;74765;44.538;18.668;2024-03-02T12:08:03;98187.72;;;25.72;21.53
84524;BME280;74765;44.538;18.668;2024-03-02T12:10:30;98183.75;;;26.51;21.36
84524;BME280;74765;44.538;18.668;2024-03-02T12:12:57;98182.28;;;26.63;20.64
84524;BME280;74765;44.538;18.668;2024-03-02T12:15:28;98186.34;;;24.99;21.88
84524;BME280;74765;44.538;18.668;2024-03-02T12:17:55;98186.13;;;25.71;21.89
84524;BME280;74765;44.538;18.668;2024-03-02T12:20:23;98185.31;;;25.48;22.41
84524;BME280;74765;44.538;18.668;2024-03-02T12:22:51;98182.63;;;25.96;21.54
84524;BME280;74765;44.538;18.668;2024-03-02T12:25:21;98187.97;;;25.31;22.59
84524;BME280;74765;44.538;18.668;2024-03-02T12:27:50;98184.38;;;26.40;21.60
84524;BME280;74765;44.538;18.668;2024-03-02T12:30:17;98174.84;;;26.37;20.69
84524;BME280;74765;44.538;18.668;2024-03-02T12:32:44;98176.72;;;26.02;20.56
84524;BME280;74765;44.538;18.668;2024-03-02T12:35:10;98169.06;;;26.47;19.82
84524;BME280;74765;44.538;18.668;2024-03-02T12:37:47;98171.59;;;26.18;20.40
84524;BME280;74765;44.538;18.668;2024-03-02T12:40:14;98166.81;;;26.32;21.68
84524;BME280;74765;44.538;18.668;2024-03-02T12:42:40;98164.38;;;26.39;21.33
84524;BME280;74765;44.538;18.668;2024-03-02T12:45:08;98165.16;;;25.66;21.14
84524;BME280;74765;44.538;18.668;2024-03-02T12:47:37;98173.16;;;26.02;22.15
84524;BME280;74765;44.538;18.668;2024-03-02T12:50:05;98169.22;;;26.42;20.89
84524;BME280;74765;44.538;18.668;2024-03-02T12:52:32;98170.38;;;25.85;20.87
84524;BME280;74765;44.538;18.668;2024-03-02T12:54:59;98166.47;;;26.34;20.09
84524;BME280;74765;44.538;18.668;2024-03-02T12:57:26;98168.00;;;26.00;20.66